sensor_id;sensor_type;location;lat;lon;timestamp;P1;durP1;ratioP1;P2;durP2;ratioP2
50555;SDS011;36508;52.512;13.450;2022-12-18T00:01:53;39.43;;;22.27;;
50555;SDS011;36508;52.512;13.450;2022-12-18T00:04:22;28.87;;;16.90;;
50555;SDS011;36508;52.512;13.450;2022-12-18T00:06:49;31.90;;;20.57;;
50555;SDS011;36508;52.512;13.450;2022-12-18T00:09:15;26.90;;;16.83;;
50555;SDS011;36508;52.512;13.450;2022-12-18T00:11:41;30.20;;;18.03;;
50555;SDS011;36508;52.512;13.450;2022-12-18T00:14:08;40.50;;;18.07;;
50555;SDS011;36508;52.512;13.450;2022-12-18T00:16:36;29.00;;;16.43;;
50555;SDS011;36508;52.512;13.450;2022-12-18T00:19:02;27.33;;;15.90;;
50555;SDS011;36508;52.512;13.450;2022-12-18T00:21:29;38.20;;;17.53;;
50555;SDS011;36508;52.512;13.450;2022-12-18T00:23:56;33.63;;;18.20;;
50555;SDS011;36508;52.512;13.450;2022-12-18T00:26:23;26.40;;;15.77;;
50555;SDS011;36508;52.512;13.450;2022-12-18T00:29:00;38.97;;;20.47;;
50555;SDS011;36508;52.512;13.450;2022-12-18T00:31:27;34.83;;;20.00;;
50555;SDS011;36508;52.512;13.450;2022-12-18T00:33:53;33.23;;;19.43;;
50555;SDS011;36508;52.512;13.450;2022-12-18T00:36:22;38.50;;;18.67;;
50555;SDS011;36508;52.512;13.450;2022-12-18T00:38:49;35.40;;;19.30;;
50555;SDS011;36508;52.512;13.450;2022-12-18T00:41:16;35.53;;;18.67;;
50555;SDS011;36508;52.512;13.450;2022-12-18T00:44:03;32.70;;;18.40;;
50555;SDS011;36508;52.512;13.450;2022-12-18T00:46:30;43.63;;;24.60;;
50555;SDS011;36508;52.512;13.450;2022-12-18T00:48:57;40.13;;;21.17;;
50555;SDS011;36508;52.512;13.450;2022-12-18T00:51:28;39.37;;;21.67;;
50555;SDS011;36508;52.512;13.450;2022-12-18T00:53:53;34.40;;;19.77;;
50555;SDS011;36508;52.512;13.450;2022-12-18T00:56:19;35.87;;;20.57;;
50555;SDS011;36508;52.512;13.450;2022-12-18T00:58:48;33.73;;;18.93;;
50555;SDS011;36508;52.512;13.450;2022-12-18T01:01:13;33.87;;;19.13;;
50555;SDS011;36508;52.512;13.450;2022-12-18T01:03:39;26.50;;;15.70;;
50555;SDS011;36508;52.512;13.450;2022-12-18T01:06:06;36.93;;;16.67;;
50555;SDS011;36508;52.512;13.450;2022-12-18T01:08:32;28.67;;;17.00;;
50555;SDS011;36508;52.512;13.450;2022-12-18T01:10:58;35.07;;;18.40;;
50555;SDS011;36508;52.512;13.450;2022-12-18T01:13:24;39.23;;;19.87;;
50555;SDS011;36508;52.512;13.450;2022-12-18T01:15:50;28.80;;;18.20;;
50555;SDS011;36508;52.512;13.450;2022-12-18T01:18:15;32.80;;;18.03;;
50555;SDS011;36508;52.512;13.450;2022-12-18T01:20:41;36.03;;;20.67;;
50555;SDS011;36508;52.512;13.450;2022-12-18T01:23:07;24.30;;;16.37;;
50555;SDS011;36508;52.512;13.450;2022-12-18T01:25:32;21.83;;;17.23;;
50555;SDS011;36508;52.512;13.450;2022-12-18T01:30:28;33.90;;;16.87;;
50555;SDS011;36508;52.512;13.450;2022-12-18T01:32:53;30.70;;;17.40;;
50555;SDS011;36508;52.512;13.450;2022-12-18T01:35:19;33.20;;;21.97;;
50555;SDS011;36508;52.512;13.450;2022-12-18T01:37:45;30.67;;;19.70;;
50555;SDS011;36508;52.512;13.450;2022-12-18T01:40:10;38.80;;;21.70;;
50555;SDS011;36508;52.512;13.450;2022-12-18T01:42:37;34.37;;;21.20;;
50555;SDS011;36508;52.512;13.450;2022-12-18T01:50:15;42.60;;;22.20;;
50555;SDS011;36508;52.512;13.450;2022-12-18T01:52:45;45.77;;;23.70;;
50555;SDS011;36508;52.512;13.450;2022-12-18T01:55:14;41.77;;;20.77;;
50555;SDS011;36508;52.512;13.450;2022-12-18T01:57:43;52.27;;;25.47;;
50555;SDS011;36508;52.512;13.450;2022-12-18T02:00:17;55.87;;;25.27;;
50555;SDS011;36508;52.512;13.450;2022-12-18T02:02:44;42.73;;;23.67;;
50555;SDS011;36508;52.512;13.450;2022-12-18T02:05:11;45.27;;;24.57;;
50555;SDS011;36508;52.512;13.450;2022-12-18T02:10:19;57.77;;;26.23;;
50555;SDS011;36508;52.512;13.450;2022-12-18T02:15:31;51.57;;;26.07;;
50555;SDS011;36508;52.512;13.450;2022-12-18T02:18:07;57.20;;;27.67;;
50555;SDS011;36508;52.512;13.450;2022-12-18T02:20:46;42.37;;;24.60;;
50555;SDS011;36508;52.512;13.450;2022-12-18T02:23:24;37.87;;;22.27;;
50555;SDS011;36508;52.512;13.450;2022-12-18T02:26:12;51.40;;;26.50;;
50555;SDS011;36508;52.512;13.450;2022-12-18T02:29:01;53.77;;;29.13;;
50555;SDS011;36508;52.512;13.450;2022-12-18T02:31:30;56.10;;;25.40;;
50555;SDS011;36508;52.512;13.450;2022-12-18T02:34:01;68.13;;;30.67;;
50555;SDS011;36508;52.512;13.450;2022-12-18T02:36:29;54.43;;;28.90;;
50555;SDS011;36508;52.512;13.450;2022-12-18T02:38:58;54.43;;;25.43;;
50555;SDS011;36508;52.512;13.450;2022-12-18T02:41:26;64.37;;;31.07;;
50555;SDS011;36508;52.512;13.450;2022-12-18T02:43:55;62.93;;;32.07;;
50555;SDS011;36508;52.512;13.450;2022-12-18T02:46:31;65.50;;;32.00;;
50555;SDS011;36508;52.512;13.450;2022-12-18T02:51:56;71.53;;;27.90;;
50555;SDS011;36508;52.512;13.450;2022-12-18T02:57:14;52.07;;;27.30;;
50555;SDS011;36508;52.512;13.450;2022-12-18T02:59:41;64.27;;;28.53;;
50555;SDS011;36508;52.512;13.450;2022-12-18T03:02:25;63.73;;;27.67;;
50555;SDS011;36508;52.512;13.450;2022-12-18T03:05:15;51.50;;;26.87;;
50555;SDS011;36508;52.512;13.450;2022-12-18T03:10:13;49.17;;;26.20;;
50555;SDS011;36508;52.512;13.450;2022-12-18T03:12:45;47.03;;;25.40;;
50555;SDS011;36508;52.512;13.450;2022-12-18T03:15:25;50.20;;;26.80;;
50555;SDS011;36508;52.512;13.450;2022-12-18T03:18:01;47.67;;;21.40;;
50555;SDS011;36508;52.512;13.450;2022-12-18T03:20:31;45.70;;;26.67;;
50555;SDS011;36508;52.512;13.450;2022-12-18T03:23:11;41.70;;;22.17;;
50555;SDS011;36508;52.512;13.450;2022-12-18T03:25:41;44.53;;;24.87;;
50555;SDS011;36508;52.512;13.450;2022-12-18T03:28:13;36.97;;;21.63;;
50555;SDS011;36508;52.512;13.450;2022-12-18T03:35:44;45.30;;;22.87;;
50555;SDS011;36508;52.512;13.450;2022-12-18T03:38:10;34.77;;;19.70;;
50555;SDS011;36508;52.512;13.450;2022-12-18T03:40:43;37.73;;;20.10;;
50555;SDS011;36508;52.512;13.450;2022-12-18T03:46:29;39.57;;;21.37;;
50555;SDS011;36508;52.512;13.450;2022-12-18T03:49:13;34.23;;;20.43;;
50555;SDS011;36508;52.512;13.450;2022-12-18T03:51:52;44.13;;;22.67;;
50555;SDS011;36508;52.512;13.450;2022-12-18T03:54:26;33.37;;;20.13;;
50555;SDS011;36508;52.512;13.450;2022-12-18T03:57:01;33.77;;;18.83;;
50555;SDS011;36508;52.512;13.450;2022-12-18T03:59:32;31.43;;;19.13;;
50555;SDS011;36508;52.512;13.450;2022-12-18T04:01:59;44.37;;;21.53;;
50555;SDS011;36508;52.512;13.450;2022-12-18T04:04:28;46.23;;;19.73;;
50555;SDS011;36508;52.512;13.450;2022-12-18T04:06:57;33.83;;;19.13;;
50555;SDS011;36508;52.512;13.450;2022-12-18T04:09:23;38.47;;;19.60;;
50555;SDS011;36508;52.512;13.450;2022-12-18T04:11:50;30.67;;;19.83;;
50555;SDS011;36508;52.512;13.450;2022-12-18T04:14:16;45.03;;;22.20;;
50555;SDS011;36508;52.512;13.450;2022-12-18T04:16:42;37.20;;;18.97;;
50555;SDS011;36508;52.512;13.450;2022-12-18T04:19:07;38.63;;;20.93;;
50555;SDS011;36508;52.512;13.450;2022-12-18T04:21:33;34.47;;;18.90;;
50555;SDS011;36508;52.512;13.450;2022-12-18T04:23:59;40.30;;;20.40;;
50555;SDS011;36508;52.512;13.450;2022-12-18T04:26:24;44.67;;;19.83;;
50555;SDS011;36508;52.512;13.450;2022-12-18T04:28:50;33.57;;;20.60;;
50555;SDS011;36508;52.512;13.450;2022-12-18T04:31:15;33.83;;;19.80;;
50555;SDS011;36508;52.512;13.450;2022-12-18T04:33:41;44.33;;;19.87;;
50555;SDS011;36508;52.512;13.450;2022-12-18T04:36:06;27.87;;;16.97;;
50555;SDS011;36508;52.512;13.450;2022-12-18T04:38:32;40.10;;;18.63;;
50555;SDS011;36508;52.512;13.450;2022-12-18T04:40:58;31.43;;;18.30;;
50555;SDS011;36508;52.512;13.450;2022-12-18T04:43:23;27.67;;;17.43;;
50555;SDS011;36508;52.512;13.450;2022-12-18T04:45:49;27.80;;;17.30;;
50555;SDS011;36508;52.512;13.450;2022-12-18T04:48:15;35.27;;;17.37;;
50555;SDS011;36508;52.512;13.450;2022-12-18T04:50:40;29.57;;;19.20;;
50555;SDS011;36508;52.512;13.450;2022-12-18T04:53:06;31.57;;;17.40;;
50555;SDS011;36508;52.512;13.450;2022-12-18T04:55:31;32.40;;;19.27;;
50555;SDS011;36508;52.512;13.450;2022-12-18T04:57:57;40.43;;;20.37;;
50555;SDS011;36508;52.512;13.450;2022-12-18T05:00:22;36.03;;;19.20;;
50555;SDS011;36508;52.512;13.450;2022-12-18T05:02:48;33.00;;;18.30;;
50555;SDS011;36508;52.512;13.450;2022-12-18T05:05:14;35.30;;;17.93;;
50555;SDS011;36508;52.512;13.450;2022-12-18T05:07:39;31.20;;;19.43;;
50555;SDS011;36508;52.512;13.450;2022-12-18T05:10:05;34.73;;;18.63;;
50555;SDS011;36508;52.512;13.450;2022-12-18T05:12:31;34.07;;;19.30;;
50555;SDS011;36508;52.512;13.450;2022-12-18T05:14:57;36.20;;;19.30;;
50555;SDS011;36508;52.512;13.450;2022-12-18T05:17:23;40.70;;;19.03;;
50555;SDS011;36508;52.512;13.450;2022-12-18T05:19:48;37.60;;;20.70;;
50555;SDS011;36508;52.512;13.450;2022-12-18T05:22:14;41.23;;;20.57;;
50555;SDS011;36508;52.512;13.450;2022-12-18T05:24:39;36.27;;;19.23;;
50555;SDS011;36508;52.512;13.450;2022-12-18T05:27:05;35.07;;;20.57;;
50555;SDS011;36508;52.512;13.450;2022-12-18T05:29:31;40.37;;;17.73;;
50555;SDS011;36508;52.512;13.450;2022-12-18T05:31:56;34.10;;;20.03;;
50555;SDS011;36508;52.512;13.450;2022-12-18T05:34:22;42.87;;;22.37;;
50555;SDS011;36508;52.512;13.450;2022-12-18T05:36:48;33.70;;;19.63;;
50555;SDS011;36508;52.512;13.450;2022-12-18T05:39:13;46.13;;;22.73;;
50555;SDS011;36508;52.512;13.450;2022-12-18T05:41:39;45.00;;;20.10;;
50555;SDS011;36508;52.512;13.450;2022-12-18T05:44:04;48.37;;;21.13;;
50555;SDS011;36508;52.512;13.450;2022-12-18T05:46:30;42.47;;;19.90;;
50555;SDS011;36508;52.512;13.450;2022-12-18T05:48:58;49.90;;;23.87;;
50555;SDS011;36508;52.512;13.450;2022-12-18T05:51:25;41.23;;;18.70;;
50555;SDS011;36508;52.512;13.450;2022-12-18T05:53:50;59.07;;;26.70;;
50555;SDS011;36508;52.512;13.450;2022-12-18T05:56:17;31.53;;;15.70;;
50555;SDS011;36508;52.512;13.450;2022-12-18T05:58:44;41.83;;;19.67;;
50555;SDS011;36508;52.512;13.450;2022-12-18T06:01:18;48.23;;;25.67;;
50555;SDS011;36508;52.512;13.450;2022-12-18T06:03:46;47.50;;;23.87;;
50555;SDS011;36508;52.512;13.450;2022-12-18T06:06:19;42.93;;;23.50;;
50555;SDS011;36508;52.512;13.450;2022-12-18T06:08:47;49.03;;;26.80;;
50555;SDS011;36508;52.512;13.450;2022-12-18T06:11:16;42.33;;;23.00;;
50555;SDS011;36508;52.512;13.450;2022-12-18T06:13:43;49.97;;;22.60;;
50555;SDS011;36508;52.512;13.450;2022-12-18T06:16:08;70.57;;;39.70;;
50555;SDS011;36508;52.512;13.450;2022-12-18T06:18:35;43.80;;;23.07;;
50555;SDS011;36508;52.512;13.450;2022-12-18T06:21:00;33.80;;;18.10;;
50555;SDS011;36508;52.512;13.450;2022-12-18T06:23:26;44.87;;;22.90;;
50555;SDS011;36508;52.512;13.450;2022-12-18T06:25:52;49.80;;;27.60;;
50555;SDS011;36508;52.512;13.450;2022-12-18T06:28:18;50.80;;;25.63;;
50555;SDS011;36508;52.512;13.450;2022-12-18T06:30:44;46.83;;;26.57;;
50555;SDS011;36508;52.512;13.450;2022-12-18T06:33:11;45.43;;;25.70;;
50555;SDS011;36508;52.512;13.450;2022-12-18T06:35:36;49.73;;;24.63;;
50555;SDS011;36508;52.512;13.450;2022-12-18T06:38:02;54.03;;;29.70;;
50555;SDS011;36508;52.512;13.450;2022-12-18T06:40:28;46.60;;;24.63;;
50555;SDS011;36508;52.512;13.450;2022-12-18T06:42:54;52.47;;;25.10;;
50555;SDS011;36508;52.512;13.450;2022-12-18T06:45:19;49.40;;;24.80;;
50555;SDS011;36508;52.512;13.450;2022-12-18T06:47:45;45.97;;;21.60;;
50555;SDS011;36508;52.512;13.450;2022-12-18T06:50:11;46.47;;;22.67;;
50555;SDS011;36508;52.512;13.450;2022-12-18T06:52:37;45.37;;;24.40;;
50555;SDS011;36508;52.512;13.450;2022-12-18T06:55:04;44.60;;;21.27;;
50555;SDS011;36508;52.512;13.450;2022-12-18T06:57:30;40.10;;;20.97;;
50555;SDS011;36508;52.512;13.450;2022-12-18T06:59:56;45.00;;;23.40;;
50555;SDS011;36508;52.512;13.450;2022-12-18T07:02:21;38.87;;;21.47;;
50555;SDS011;36508;52.512;13.450;2022-12-18T07:04:47;39.80;;;22.70;;
50555;SDS011;36508;52.512;13.450;2022-12-18T07:07:12;47.13;;;23.33;;
50555;SDS011;36508;52.512;13.450;2022-12-18T07:09:38;38.63;;;21.30;;
50555;SDS011;36508;52.512;13.450;2022-12-18T07:12:03;45.57;;;23.23;;
50555;SDS011;36508;52.512;13.450;2022-12-18T07:14:29;40.30;;;22.10;;
50555;SDS011;36508;52.512;13.450;2022-12-18T07:16:55;34.30;;;16.70;;
50555;SDS011;36508;52.512;13.450;2022-12-18T07:19:21;42.70;;;20.83;;
50555;SDS011;36508;52.512;13.450;2022-12-18T07:21:46;33.63;;;19.93;;
50555;SDS011;36508;52.512;13.450;2022-12-18T07:24:12;41.17;;;22.63;;
50555;SDS011;36508;52.512;13.450;2022-12-18T07:26:37;41.70;;;25.47;;
50555;SDS011;36508;52.512;13.450;2022-12-18T07:29:03;35.63;;;19.23;;
50555;SDS011;36508;52.512;13.450;2022-12-18T07:31:29;36.23;;;19.07;;
50555;SDS011;36508;52.512;13.450;2022-12-18T07:33:54;37.73;;;20.23;;
50555;SDS011;36508;52.512;13.450;2022-12-18T07:36:20;55.53;;;23.33;;
50555;SDS011;36508;52.512;13.450;2022-12-18T07:38:49;47.47;;;26.47;;
50555;SDS011;36508;52.512;13.450;2022-12-18T07:41:16;42.33;;;21.83;;
50555;SDS011;36508;52.512;13.450;2022-12-18T07:43:42;39.30;;;22.77;;
50555;SDS011;36508;52.512;13.450;2022-12-18T07:46:08;45.67;;;21.47;;
50555;SDS011;36508;52.512;13.450;2022-12-18T07:48:34;34.57;;;20.30;;
50555;SDS011;36508;52.512;13.450;2022-12-18T07:51:03;43.87;;;22.10;;
50555;SDS011;36508;52.512;13.450;2022-12-18T07:53:31;36.43;;;21.60;;
50555;SDS011;36508;52.512;13.450;2022-12-18T07:55:58;40.47;;;19.37;;
50555;SDS011;36508;52.512;13.450;2022-12-18T07:58:25;27.90;;;16.93;;
50555;SDS011;36508;52.512;13.450;2022-12-18T08:00:51;36.10;;;21.40;;
50555;SDS011;36508;52.512;13.450;2022-12-18T08:03:17;43.47;;;23.90;;
50555;SDS011;36508;52.512;13.450;2022-12-18T08:05:43;35.50;;;20.53;;
50555;SDS011;36508;52.512;13.450;2022-12-18T08:08:09;41.30;;;22.17;;
50555;SDS011;36508;52.512;13.450;2022-12-18T08:10:34;38.90;;;23.80;;
50555;SDS011;36508;52.512;13.450;2022-12-18T08:13:00;38.37;;;23.43;;
50555;SDS011;36508;52.512;13.450;2022-12-18T08:15:25;39.40;;;23.73;;
50555;SDS011;36508;52.512;13.450;2022-12-18T08:17:51;44.90;;;21.80;;
50555;SDS011;36508;52.512;13.450;2022-12-18T08:20:16;36.50;;;20.50;;
50555;SDS011;36508;52.512;13.450;2022-12-18T08:22:43;32.33;;;20.00;;
50555;SDS011;36508;52.512;13.450;2022-12-18T08:25:09;31.97;;;21.10;;
50555;SDS011;36508;52.512;13.450;2022-12-18T08:27:35;36.23;;;21.63;;
50555;SDS011;36508;52.512;13.450;2022-12-18T08:30:01;35.30;;;19.50;;
50555;SDS011;36508;52.512;13.450;2022-12-18T08:32:28;30.23;;;18.70;;
50555;SDS011;36508;52.512;13.450;2022-12-18T08:34:53;37.10;;;19.60;;
50555;SDS011;36508;52.512;13.450;2022-12-18T08:37:19;37.90;;;24.50;;
50555;SDS011;36508;52.512;13.450;2022-12-18T08:39:44;46.30;;;23.53;;
50555;SDS011;36508;52.512;13.450;2022-12-18T08:44:40;34.07;;;20.07;;
50555;SDS011;36508;52.512;13.450;2022-12-18T08:47:06;39.93;;;24.60;;
50555;SDS011;36508;52.512;13.450;2022-12-18T08:49:32;40.13;;;21.13;;
50555;SDS011;36508;52.512;13.450;2022-12-18T08:51:58;50.13;;;30.77;;
50555;SDS011;36508;52.512;13.450;2022-12-18T08:54:24;37.20;;;22.87;;
50555;SDS011;36508;52.512;13.450;2022-12-18T08:56:50;38.60;;;21.80;;
50555;SDS011;36508;52.512;13.450;2022-12-18T08:59:17;35.57;;;23.40;;
50555;SDS011;36508;52.512;13.450;2022-12-18T09:01:43;41.33;;;23.30;;
50555;SDS011;36508;52.512;13.450;2022-12-18T09:04:09;36.47;;;20.47;;
50555;SDS011;36508;52.512;13.450;2022-12-18T09:06:35;34.67;;;21.83;;
50555;SDS011;36508;52.512;13.450;2022-12-18T09:09:00;35.40;;;20.80;;
50555;SDS011;36508;52.512;13.450;2022-12-18T09:11:27;31.00;;;19.10;;
50555;SDS011;36508;52.512;13.450;2022-12-18T09:13:53;30.10;;;17.83;;
50555;SDS011;36508;52.512;13.450;2022-12-18T09:16:20;27.83;;;19.60;;
50555;SDS011;36508;52.512;13.450;2022-12-18T09:18:46;21.77;;;13.70;;
50555;SDS011;36508;52.512;13.450;2022-12-18T09:21:16;38.27;;;20.23;;
50555;SDS011;36508;52.512;13.450;2022-12-18T09:23:44;36.07;;;18.03;;
50555;SDS011;36508;52.512;13.450;2022-12-18T09:26:14;35.13;;;18.07;;
50555;SDS011;36508;52.512;13.450;2022-12-18T09:28:39;28.63;;;16.67;;
50555;SDS011;36508;52.512;13.450;2022-12-18T09:31:06;38.63;;;22.60;;
50555;SDS011;36508;52.512;13.450;2022-12-18T09:33:33;39.53;;;20.77;;
50555;SDS011;36508;52.512;13.450;2022-12-18T09:36:01;37.63;;;20.80;;
50555;SDS011;36508;52.512;13.450;2022-12-18T09:38:31;41.37;;;23.43;;
50555;SDS011;36508;52.512;13.450;2022-12-18T09:41:05;41.10;;;21.53;;
50555;SDS011;36508;52.512;13.450;2022-12-18T09:44:24;40.53;;;22.10;;
50555;SDS011;36508;52.512;13.450;2022-12-18T09:49:26;35.43;;;20.43;;
50555;SDS011;36508;52.512;13.450;2022-12-18T09:54:44;36.60;;;20.67;;
50555;SDS011;36508;52.512;13.450;2022-12-18T09:57:21;40.73;;;21.23;;
50555;SDS011;36508;52.512;13.450;2022-12-18T10:00:32;47.30;;;24.10;;
50555;SDS011;36508;52.512;13.450;2022-12-18T10:02:45;34.90;;;20.30;;
50555;SDS011;36508;52.512;13.450;2022-12-18T10:05:24;34.67;;;19.70;;
50555;SDS011;36508;52.512;13.450;2022-12-18T10:08:03;37.47;;;21.40;;
50555;SDS011;36508;52.512;13.450;2022-12-18T10:21:39;28.43;;;16.90;;
50555;SDS011;36508;52.512;13.450;2022-12-18T10:24:26;34.27;;;20.07;;
50555;SDS011;36508;52.512;13.450;2022-12-18T10:29:56;45.23;;;20.53;;
50555;SDS011;36508;52.512;13.450;2022-12-18T10:32:23;34.73;;;21.30;;
50555;SDS011;36508;52.512;13.450;2022-12-18T10:34:51;43.17;;;25.70;;
50555;SDS011;36508;52.512;13.450;2022-12-18T10:37:19;40.83;;;21.77;;
50555;SDS011;36508;52.512;13.450;2022-12-18T10:40:07;35.47;;;24.73;;
50555;SDS011;36508;52.512;13.450;2022-12-18T10:42:37;47.80;;;25.70;;
50555;SDS011;36508;52.512;13.450;2022-12-18T10:45:07;41.03;;;25.27;;
50555;SDS011;36508;52.512;13.450;2022-12-18T10:47:33;42.27;;;23.77;;
50555;SDS011;36508;52.512;13.450;2022-12-18T10:49:59;39.40;;;22.43;;
50555;SDS011;36508;52.512;13.450;2022-12-18T10:52:25;37.07;;;22.10;;
50555;SDS011;36508;52.512;13.450;2022-12-18T10:57:31;40.00;;;22.80;;
50555;SDS011;36508;52.512;13.450;2022-12-18T11:03:00;41.93;;;21.00;;
50555;SDS011;36508;52.512;13.450;2022-12-18T11:07:58;32.27;;;19.90;;
50555;SDS011;36508;52.512;13.450;2022-12-18T11:10:26;33.47;;;20.87;;
50555;SDS011;36508;52.512;13.450;2022-12-18T11:13:07;39.13;;;18.87;;
50555;SDS011;36508;52.512;13.450;2022-12-18T11:15:47;42.43;;;24.87;;
50555;SDS011;36508;52.512;13.450;2022-12-18T11:18:17;25.37;;;15.70;;
50555;SDS011;36508;52.512;13.450;2022-12-18T11:20:55;30.00;;;19.90;;
50555;SDS011;36508;52.512;13.450;2022-12-18T11:23:22;31.47;;;21.30;;
50555;SDS011;36508;52.512;13.450;2022-12-18T11:25:59;31.33;;;21.20;;
50555;SDS011;36508;52.512;13.450;2022-12-18T11:31:27;35.23;;;22.83;;
50555;SDS011;36508;52.512;13.450;2022-12-18T11:36:29;40.73;;;25.73;;
50555;SDS011;36508;52.512;13.450;2022-12-18T11:38:59;35.60;;;23.50;;
50555;SDS011;36508;52.512;13.450;2022-12-18T11:41:47;35.83;;;20.10;;
50555;SDS011;36508;52.512;13.450;2022-12-18T11:44:52;28.00;;;18.40;;
50555;SDS011;36508;52.512;13.450;2022-12-18T11:50:18;35.57;;;21.30;;
50555;SDS011;36508;52.512;13.450;2022-12-18T11:52:47;39.27;;;22.03;;
50555;SDS011;36508;52.512;13.450;2022-12-18T11:55:14;42.17;;;24.10;;
50555;SDS011;36508;52.512;13.450;2022-12-18T12:00:38;35.97;;;22.57;;
50555;SDS011;36508;52.512;13.450;2022-12-18T12:03:21;40.67;;;22.80;;
50555;SDS011;36508;52.512;13.450;2022-12-18T12:26:01;49.07;;;22.97;;
50555;SDS011;36508;52.512;13.450;2022-12-18T12:28:49;29.53;;;20.60;;
50555;SDS011;36508;52.512;13.450;2022-12-18T12:34:38;33.57;;;21.00;;
50555;SDS011;36508;52.512;13.450;2022-12-18T12:40:27;33.20;;;18.07;;
50555;SDS011;36508;52.512;13.450;2022-12-18T12:42:59;36.60;;;18.83;;
50555;SDS011;36508;52.512;13.450;2022-12-18T12:53:38;28.97;;;20.10;;
50555;SDS011;36508;52.512;13.450;2022-12-18T12:56:06;38.00;;;19.90;;
50555;SDS011;36508;52.512;13.450;2022-12-18T13:01:20;32.70;;;20.80;;
50555;SDS011;36508;52.512;13.450;2022-12-18T13:03:55;34.80;;;20.47;;
50555;SDS011;36508;52.512;13.450;2022-12-18T13:09:12;33.13;;;22.63;;
50555;SDS011;36508;52.512;13.450;2022-12-18T13:11:41;29.37;;;20.30;;
50555;SDS011;36508;52.512;13.450;2022-12-18T13:19:49;33.53;;;24.90;;
50555;SDS011;36508;52.512;13.450;2022-12-18T13:22:20;31.23;;;22.23;;
50555;SDS011;36508;52.512;13.450;2022-12-18T13:24:58;38.67;;;23.80;;
50555;SDS011;36508;52.512;13.450;2022-12-18T13:46:45;29.60;;;19.40;;
50555;SDS011;36508;52.512;13.450;2022-12-18T13:51:39;34.70;;;24.50;;
50555;SDS011;36508;52.512;13.450;2022-12-18T13:56:44;30.00;;;21.23;;
50555;SDS011;36508;52.512;13.450;2022-12-18T13:59:19;34.03;;;22.03;;
50555;SDS011;36508;52.512;13.450;2022-12-18T14:01:57;37.17;;;24.00;;
50555;SDS011;36508;52.512;13.450;2022-12-18T14:04:29;35.37;;;24.57;;
50555;SDS011;36508;52.512;13.450;2022-12-18T14:07:05;36.23;;;25.80;;
50555;SDS011;36508;52.512;13.450;2022-12-18T14:09:42;34.97;;;24.00;;
50555;SDS011;36508;52.512;13.450;2022-12-18T14:14:55;37.37;;;23.50;;
50555;SDS011;36508;52.512;13.450;2022-12-18T14:17:21;49.97;;;33.17;;
50555;SDS011;36508;52.512;13.450;2022-12-18T14:19:49;33.67;;;26.60;;
50555;SDS011;36508;52.512;13.450;2022-12-18T14:22:19;43.63;;;27.17;;
50555;SDS011;36508;52.512;13.450;2022-12-18T14:24:47;40.03;;;26.40;;
50555;SDS011;36508;52.512;13.450;2022-12-18T14:27:29;36.10;;;25.27;;
50555;SDS011;36508;52.512;13.450;2022-12-18T14:29:55;29.73;;;22.40;;
50555;SDS011;36508;52.512;13.450;2022-12-18T14:32:20;39.13;;;23.50;;
50555;SDS011;36508;52.512;13.450;2022-12-18T14:34:47;32.90;;;23.90;;
50555;SDS011;36508;52.512;13.450;2022-12-18T14:37:15;32.27;;;24.20;;
50555;SDS011;36508;52.512;13.450;2022-12-18T14:39:52;36.30;;;21.23;;
50555;SDS011;36508;52.512;13.450;2022-12-18T14:42:19;37.43;;;21.90;;
50555;SDS011;36508;52.512;13.450;2022-12-18T14:44:45;31.57;;;21.53;;
50555;SDS011;36508;52.512;13.450;2022-12-18T14:47:15;29.37;;;19.90;;
50555;SDS011;36508;52.512;13.450;2022-12-18T14:49:41;28.37;;;18.83;;
50555;SDS011;36508;52.512;13.450;2022-12-18T14:52:20;32.67;;;21.00;;
50555;SDS011;36508;52.512;13.450;2022-12-18T14:54:51;25.33;;;19.20;;
50555;SDS011;36508;52.512;13.450;2022-12-18T14:57:24;28.27;;;18.40;;
50555;SDS011;36508;52.512;13.450;2022-12-18T14:59:55;27.53;;;22.10;;
50555;SDS011;36508;52.512;13.450;2022-12-18T15:02:30;26.73;;;19.90;;
50555;SDS011;36508;52.512;13.450;2022-12-18T15:05:14;30.70;;;19.73;;
50555;SDS011;36508;52.512;13.450;2022-12-18T15:07:47;21.80;;;16.27;;
50555;SDS011;36508;52.512;13.450;2022-12-18T15:10:21;30.13;;;19.10;;
50555;SDS011;36508;52.512;13.450;2022-12-18T15:17:58;29.40;;;19.53;;
50555;SDS011;36508;52.512;13.450;2022-12-18T15:20:31;30.33;;;19.90;;
50555;SDS011;36508;52.512;13.450;2022-12-18T15:23:04;31.87;;;23.00;;
50555;SDS011;36508;52.512;13.450;2022-12-18T15:25:36;27.00;;;18.97;;
50555;SDS011;36508;52.512;13.450;2022-12-18T15:28:03;31.30;;;23.27;;
50555;SDS011;36508;52.512;13.450;2022-12-18T15:30:40;34.13;;;24.97;;
50555;SDS011;36508;52.512;13.450;2022-12-18T15:33:30;28.07;;;23.70;;
50555;SDS011;36508;52.512;13.450;2022-12-18T15:36:01;32.23;;;20.77;;
50555;SDS011;36508;52.512;13.450;2022-12-18T15:38:29;29.33;;;22.77;;
50555;SDS011;36508;52.512;13.450;2022-12-18T15:40:55;30.90;;;21.67;;
50555;SDS011;36508;52.512;13.450;2022-12-18T15:43:21;32.30;;;22.07;;
50555;SDS011;36508;52.512;13.450;2022-12-18T15:46:22;29.37;;;20.10;;
50555;SDS011;36508;52.512;13.450;2022-12-18T15:48:47;30.23;;;20.40;;
50555;SDS011;36508;52.512;13.450;2022-12-18T15:51:18;26.67;;;18.47;;
50555;SDS011;36508;52.512;13.450;2022-12-18T15:53:46;28.97;;;22.67;;
50555;SDS011;36508;52.512;13.450;2022-12-18T15:56:14;26.67;;;16.53;;
50555;SDS011;36508;52.512;13.450;2022-12-18T15:58:59;30.57;;;24.37;;
50555;SDS011;36508;52.512;13.450;2022-12-18T16:01:27;38.73;;;24.10;;
50555;SDS011;36508;52.512;13.450;2022-12-18T16:03:54;30.67;;;19.83;;
50555;SDS011;36508;52.512;13.450;2022-12-18T16:06:20;20.07;;;15.37;;
50555;SDS011;36508;52.512;13.450;2022-12-18T16:08:47;29.70;;;20.30;;
50555;SDS011;36508;52.512;13.450;2022-12-18T16:16:47;33.53;;;18.87;;
50555;SDS011;36508;52.512;13.450;2022-12-18T16:19:14;29.87;;;22.90;;
50555;SDS011;36508;52.512;13.450;2022-12-18T16:21:41;24.80;;;19.23;;
50555;SDS011;36508;52.512;13.450;2022-12-18T16:24:14;26.70;;;20.37;;
50555;SDS011;36508;52.512;13.450;2022-12-18T16:26:41;29.83;;;22.03;;
50555;SDS011;36508;52.512;13.450;2022-12-18T16:29:07;25.00;;;18.93;;
50555;SDS011;36508;52.512;13.450;2022-12-18T16:31:34;27.90;;;20.50;;
50555;SDS011;36508;52.512;13.450;2022-12-18T16:36:55;38.53;;;24.10;;
50555;SDS011;36508;52.512;13.450;2022-12-18T16:39:25;35.93;;;23.50;;
50555;SDS011;36508;52.512;13.450;2022-12-18T16:41:51;33.40;;;22.20;;
50555;SDS011;36508;52.512;13.450;2022-12-18T16:44:17;32.60;;;23.90;;
50555;SDS011;36508;52.512;13.450;2022-12-18T16:46:43;37.03;;;21.90;;
50555;SDS011;36508;52.512;13.450;2022-12-18T16:49:12;33.17;;;21.17;;
50555;SDS011;36508;52.512;13.450;2022-12-18T16:51:39;24.70;;;20.03;;
50555;SDS011;36508;52.512;13.450;2022-12-18T16:54:04;33.17;;;22.67;;
50555;SDS011;36508;52.512;13.450;2022-12-18T16:56:30;33.97;;;23.63;;
50555;SDS011;36508;52.512;13.450;2022-12-18T16:58:57;28.30;;;23.83;;